createdAt,value
2019-01-18T00:02:05.603Z,3.27
2019-01-18T00:04:33.870Z,3.20
2019-01-18T00:07:02.107Z,3.27
2019-01-18T00:09:30.370Z,3.60
2019-01-18T00:11:58.612Z,3.40
2019-01-18T00:14:26.874Z,3.80
2019-01-18T00:16:55.117Z,3.72
2019-01-18T00:19:23.366Z,3.77
2019-01-18T00:21:51.606Z,3.35
2019-01-18T00:24:19.833Z,3.20
2019-01-18T00:26:48.098Z,2.90
2019-01-18T00:29:16.361Z,3.25
2019-01-18T00:31:44.607Z,3.33
2019-01-18T00:34:12.833Z,3.42
2019-01-18T00:36:41.089Z,3.17
2019-01-18T00:39:09.321Z,3.00
2019-01-18T00:41:37.557Z,4.37
2019-01-18T00:44:05.825Z,2.58
2019-01-18T00:46:34.066Z,3.27
2019-01-18T00:49:02.323Z,3.00
2019-01-18T00:51:30.570Z,3.22
2019-01-18T00:53:58.828Z,3.65
2019-01-18T00:56:27.068Z,2.85
2019-01-18T00:58:55.331Z,3.52
2019-01-18T01:01:23.562Z,3.60
2019-01-18T01:03:51.789Z,3.50
2019-01-18T01:06:20.055Z,3.37
2019-01-18T01:08:48.317Z,4.50
2019-01-18T01:11:16.568Z,3.75
2019-01-18T01:13:44.819Z,2.98
2019-01-18T01:16:13.064Z,3.58
2019-01-18T01:18:41.306Z,3.10
2019-01-18T01:21:09.572Z,3.10
2019-01-18T01:23:37.804Z,3.65
2019-01-18T01:26:06.050Z,3.40
2019-01-18T01:28:34.285Z,3.70
2019-01-18T01:31:02.527Z,3.67
2019-01-18T01:33:30.769Z,3.70
2019-01-18T01:35:59.011Z,3.65
2019-01-18T01:38:27.256Z,4.03
2019-01-18T01:40:55.482Z,3.83
2019-01-18T01:43:23.753Z,4.17
2019-01-18T01:45:51.974Z,4.70
2019-01-18T01:48:20.252Z,4.40
2019-01-18T01:50:48.485Z,5.53
2019-01-18T01:53:16.738Z,4.72
2019-01-18T01:55:44.995Z,4.10
2019-01-18T01:58:13.241Z,4.35
2019-01-18T02:00:41.489Z,4.85
2019-01-18T02:03:09.730Z,3.70
2019-01-18T02:05:38.032Z,5.33
2019-01-18T02:08:06.304Z,5.10
2019-01-18T02:10:34.568Z,4.97
2019-01-18T02:13:02.797Z,5.37
2019-01-18T02:15:31.072Z,4.62
2019-01-18T02:17:59.301Z,4.45
2019-01-18T02:20:27.540Z,4.35
2019-01-18T02:22:55.818Z,4.22
2019-01-18T02:25:24.041Z,4.58
2019-01-18T02:27:52.319Z,3.85
2019-01-18T02:30:22.806Z,4.08
2019-01-18T02:32:51.049Z,4.30
2019-01-18T02:35:19.285Z,3.80
2019-01-18T02:37:47.534Z,3.87
2019-01-18T02:40:15.851Z,3.37
2019-01-18T02:42:44.095Z,3.92
2019-01-18T02:45:15.170Z,3.70
2019-01-18T02:47:43.421Z,3.62
2019-01-18T02:50:11.949Z,3.72
2019-01-18T02:52:40.216Z,4.03
2019-01-18T02:55:09.808Z,4.00
2019-01-18T02:57:38.047Z,3.75
2019-01-18T03:00:12.541Z,3.45
2019-01-18T03:02:40.872Z,3.45
2019-01-18T03:05:11.057Z,4.37
2019-01-18T03:07:39.316Z,3.83
2019-01-18T03:10:10.822Z,3.77
2019-01-18T03:12:39.073Z,2.90
2019-01-18T03:15:08.367Z,3.65
2019-01-18T03:17:36.620Z,3.12
2019-01-18T03:20:08.128Z,3.35
2019-01-18T03:22:36.401Z,3.15
2019-01-18T03:25:07.890Z,3.52
2019-01-18T03:27:36.137Z,2.70
2019-01-18T03:30:18.181Z,3.40
2019-01-18T03:32:37.628Z,3.50
2019-01-18T03:35:08.218Z,3.92
2019-01-18T03:37:36.442Z,3.83
2019-01-18T03:40:08.009Z,4.62
2019-01-18T03:42:36.252Z,4.08
2019-01-18T03:45:07.951Z,4.45
2019-01-18T03:47:36.191Z,4.58
2019-01-18T03:50:07.562Z,4.35
2019-01-18T03:52:35.820Z,4.00
2019-01-18T03:55:04.690Z,5.37
2019-01-18T03:57:32.953Z,5.58
2019-01-18T04:00:01.196Z,4.75
2019-01-18T04:02:29.448Z,5.40
2019-01-18T04:04:57.695Z,4.70
2019-01-18T04:07:25.987Z,5.47
2019-01-18T04:09:54.237Z,6.08
2019-01-18T04:12:22.558Z,5.35
2019-01-18T04:14:50.806Z,5.72
2019-01-18T04:17:19.073Z,4.72
2019-01-18T04:19:47.326Z,4.87
2019-01-18T04:22:15.581Z,4.87
2019-01-18T04:24:43.827Z,4.30
2019-01-18T04:27:13.636Z,3.27
2019-01-18T04:29:41.878Z,4.45
2019-01-18T04:32:10.110Z,4.97
2019-01-18T04:34:38.432Z,4.00
2019-01-18T04:37:06.727Z,5.55
2019-01-18T04:39:34.977Z,4.15
2019-01-18T04:42:03.220Z,4.80
2019-01-18T04:44:31.480Z,4.28
2019-01-18T04:46:59.721Z,4.90
2019-01-18T04:49:27.970Z,3.98
2019-01-18T04:51:56.208Z,3.47
2019-01-18T04:54:24.476Z,4.47
2019-01-18T04:56:52.704Z,4.12
2019-01-18T04:59:20.956Z,4.10
2019-01-18T05:01:49.227Z,4.00
2019-01-18T05:04:17.468Z,4.00
2019-01-18T05:06:45.707Z,3.98
2019-01-18T05:09:14.023Z,4.60
2019-01-18T05:11:42.257Z,4.25
2019-01-18T05:14:10.486Z,4.28
2019-01-18T05:16:38.749Z,3.75
2019-01-18T05:19:06.982Z,3.75
2019-01-18T05:21:35.231Z,3.77
2019-01-18T05:24:03.490Z,3.67
2019-01-18T05:26:31.737Z,3.85
2019-01-18T05:28:59.996Z,3.60
2019-01-18T05:31:28.254Z,3.80
2019-01-18T05:33:56.502Z,4.03
2019-01-18T05:36:24.737Z,4.25
2019-01-18T05:38:52.990Z,4.67
2019-01-18T05:41:21.222Z,4.22
2019-01-18T05:43:49.465Z,4.78
2019-01-18T05:46:17.718Z,6.03
2019-01-18T05:48:45.964Z,6.75
2019-01-18T05:51:14.313Z,5.62
2019-01-18T05:53:42.551Z,4.53
2019-01-18T05:56:10.828Z,5.12
2019-01-18T05:58:39.056Z,4.10
2019-01-18T06:01:07.476Z,4.53
2019-01-18T06:03:35.740Z,5.30
2019-01-18T06:06:04.169Z,5.12
2019-01-18T06:08:32.406Z,4.70
2019-01-18T06:11:00.643Z,4.67
2019-01-18T06:13:28.908Z,5.05
2019-01-18T06:15:57.152Z,6.72
2019-01-18T06:18:25.424Z,5.85
2019-01-18T06:20:53.680Z,5.55
2019-01-18T06:23:21.937Z,5.50
2019-01-18T06:25:50.184Z,5.62
2019-01-18T06:28:18.443Z,5.15
2019-01-18T06:30:46.675Z,5.65
2019-01-18T06:33:14.943Z,6.20
2019-01-18T06:35:43.206Z,10.25
2019-01-18T06:38:11.456Z,6.12
2019-01-18T06:40:39.708Z,6.65
2019-01-18T06:43:08.055Z,7.05
2019-01-18T06:45:36.309Z,7.05
2019-01-18T06:48:04.629Z,6.97
2019-01-18T06:50:32.874Z,7.05
2019-01-18T06:53:01.109Z,16.48
2019-01-18T06:55:29.357Z,12.33
2019-01-18T06:57:57.594Z,15.68
2019-01-18T07:00:28.093Z,14.60
2019-01-18T07:02:56.364Z,25.95
2019-01-18T07:05:24.609Z,15.45
2019-01-18T07:07:52.868Z,8.90
2019-01-18T07:10:22.866Z,36.63
2019-01-18T07:12:51.095Z,12.00
2019-01-18T07:15:20.574Z,11.55
2019-01-18T07:17:48.825Z,14.85
2019-01-18T07:20:19.112Z,18.48
2019-01-18T07:22:47.370Z,29.72
2019-01-18T07:25:23.661Z,37.53
2019-01-18T07:27:51.929Z,22.93
2019-01-18T07:30:22.501Z,23.22
2019-01-18T07:32:50.742Z,18.32
2019-01-18T07:35:19.007Z,12.78
2019-01-18T07:37:47.248Z,15.80
2019-01-18T07:40:15.517Z,11.50
2019-01-18T07:42:43.801Z,9.95
2019-01-18T07:45:17.557Z,8.85
2019-01-18T07:47:45.813Z,8.35
2019-01-18T07:50:19.944Z,7.87
2019-01-18T07:52:44.186Z,7.75
2019-01-18T07:55:12.421Z,9.48
2019-01-18T07:57:40.684Z,9.35
2019-01-18T08:00:20.717Z,7.28
2019-01-18T08:02:48.953Z,9.75
2019-01-18T08:05:17.269Z,9.08
2019-01-18T08:07:45.519Z,9.75
2019-01-18T08:10:21.618Z,9.75
2019-01-18T08:15:19.470Z,9.35
2019-01-18T08:17:47.721Z,9.63
2019-01-18T08:20:18.715Z,9.58
2019-01-18T08:22:46.976Z,9.73
2019-01-18T08:25:15.859Z,9.68
2019-01-18T08:27:44.122Z,8.28
2019-01-18T08:30:15.363Z,12.13
2019-01-18T08:32:43.641Z,8.73
2019-01-18T08:35:14.030Z,8.40
2019-01-18T08:37:42.337Z,9.38
2019-01-18T08:40:13.260Z,9.00
2019-01-18T08:42:41.504Z,9.35
2019-01-18T08:45:15.716Z,7.55
2019-01-18T08:47:43.949Z,9.43
2019-01-18T08:50:17.352Z,9.13
2019-01-18T08:52:45.601Z,9.05
2019-01-18T08:55:13.855Z,8.60
2019-01-18T08:57:42.100Z,9.65
2019-01-18T09:00:24.997Z,9.53
2019-01-18T09:02:53.275Z,9.85
2019-01-18T09:05:23.864Z,9.25
2019-01-18T09:07:52.107Z,9.60
2019-01-18T09:10:22.995Z,9.30
2019-01-18T09:12:51.277Z,9.00
2019-01-18T09:15:19.528Z,8.73
2019-01-18T09:17:47.776Z,9.08
2019-01-18T09:20:21.674Z,9.63
2019-01-18T09:22:50.000Z,10.23
2019-01-18T09:25:18.521Z,9.93
2019-01-18T09:27:46.947Z,10.18
2019-01-18T09:30:20.505Z,10.68
2019-01-18T09:32:48.990Z,10.20
2019-01-18T09:35:19.489Z,10.93
2019-01-18T09:37:47.728Z,10.82
2019-01-18T09:40:21.922Z,10.13
2019-01-18T09:42:50.194Z,10.13
2019-01-18T09:45:18.447Z,10.25
2019-01-18T09:47:46.682Z,10.03
2019-01-18T09:50:19.811Z,9.55
2019-01-18T09:52:48.137Z,9.48
2019-01-18T09:55:16.374Z,9.10
2019-01-18T09:57:44.630Z,9.98
2019-01-18T10:00:18.537Z,10.90
2019-01-18T10:02:46.857Z,10.75
2019-01-18T10:05:15.116Z,11.75
2019-01-18T10:07:43.352Z,10.95
2019-01-18T10:10:14.304Z,9.58
2019-01-18T10:12:42.598Z,11.12
2019-01-18T10:15:14.174Z,9.33
2019-01-18T10:17:42.409Z,10.00
2019-01-18T10:20:13.653Z,10.53
2019-01-18T10:22:42.421Z,9.20
2019-01-18T10:25:12.897Z,8.20
2019-01-18T10:27:41.159Z,9.60
2019-01-18T10:30:15.591Z,9.15
2019-01-18T10:32:43.872Z,8.20
2019-01-18T10:35:12.177Z,7.85
2019-01-18T10:37:40.547Z,8.40
2019-01-18T10:40:10.865Z,8.45
2019-01-18T10:42:39.310Z,8.53
2019-01-18T10:45:10.650Z,9.70
2019-01-18T10:47:39.021Z,8.10
2019-01-18T10:50:10.594Z,7.65
2019-01-18T10:52:38.968Z,7.25
2019-01-18T10:55:09.413Z,7.62
2019-01-18T10:57:37.704Z,8.08
2019-01-18T11:00:09.486Z,7.97
2019-01-18T11:02:37.799Z,7.72
2019-01-18T11:05:08.980Z,8.25
2019-01-18T11:07:37.452Z,7.75
2019-01-18T11:10:09.064Z,7.05
2019-01-18T11:12:37.509Z,8.15
2019-01-18T11:15:11.620Z,7.70
2019-01-18T11:17:40.191Z,8.35
2019-01-18T11:20:17.731Z,7.03
2019-01-18T11:22:46.108Z,7.50
2019-01-18T11:25:14.550Z,6.30
2019-01-18T11:27:42.969Z,7.42
2019-01-18T11:30:15.759Z,6.65
2019-01-18T11:32:44.031Z,7.47
2019-01-18T11:35:12.257Z,7.75
2019-01-18T11:37:40.521Z,8.45
2019-01-18T11:40:12.165Z,8.35
2019-01-18T11:42:40.410Z,6.47
2019-01-18T11:45:10.615Z,7.22
2019-01-18T11:47:38.841Z,7.05
2019-01-18T11:50:13.397Z,8.58
2019-01-18T11:52:41.732Z,10.23
2019-01-18T11:55:10.086Z,8.65
2019-01-18T11:57:38.517Z,7.83
2019-01-18T12:00:10.274Z,7.45
2019-01-18T12:02:38.646Z,8.15
2019-01-18T12:05:07.017Z,7.25
2019-01-18T12:07:35.272Z,7.15
2019-01-18T12:10:05.202Z,6.78
2019-01-18T12:12:33.443Z,6.42
2019-01-18T12:15:01.851Z,6.62
2019-01-18T12:17:30.119Z,6.92
2019-01-18T12:19:58.338Z,6.40
2019-01-18T12:22:26.590Z,6.70
2019-01-18T12:24:55.022Z,6.62
2019-01-18T12:27:23.302Z,6.10
2019-01-18T12:29:51.548Z,6.37
2019-01-18T12:32:19.802Z,6.50
2019-01-18T12:34:48.034Z,5.75
2019-01-18T12:37:16.291Z,6.28
2019-01-18T12:39:44.517Z,6.70
2019-01-18T12:42:12.774Z,5.95
2019-01-18T12:44:41.052Z,6.85
2019-01-18T12:47:09.286Z,5.90
2019-01-18T12:49:37.521Z,5.95
2019-01-18T12:52:05.778Z,5.83
2019-01-18T12:54:34.043Z,6.30
2019-01-18T12:57:02.287Z,5.60
2019-01-18T12:59:49.962Z,5.60
2019-01-18T13:02:18.209Z,5.62
2019-01-18T13:04:46.475Z,6.45
2019-01-18T13:07:14.702Z,7.70
2019-01-18T13:09:42.952Z,7.80
2019-01-18T13:12:11.203Z,8.00
2019-01-18T13:14:39.469Z,8.55
2019-01-18T13:17:07.790Z,9.18
2019-01-18T13:19:36.074Z,9.83
2019-01-18T13:22:04.320Z,9.40
2019-01-18T13:24:32.545Z,8.00
2019-01-18T13:27:00.898Z,8.43
2019-01-18T13:29:29.208Z,9.73
2019-01-18T13:31:57.449Z,9.08
2019-01-18T13:34:25.694Z,9.25
2019-01-18T13:36:53.951Z,9.55
2019-01-18T13:39:22.194Z,9.28
2019-01-18T13:41:50.434Z,9.00
2019-01-18T13:44:18.687Z,9.23
2019-01-18T13:46:46.939Z,9.65
2019-01-18T13:49:15.197Z,9.90
2019-01-18T13:51:46.232Z,9.53
2019-01-18T13:54:13.411Z,8.83
2019-01-18T13:56:41.674Z,9.43
2019-01-18T13:59:09.932Z,8.93
2019-01-18T14:01:38.173Z,7.40
2019-01-18T14:04:06.497Z,7.47
2019-01-18T14:06:34.752Z,7.20
2019-01-18T14:09:03.067Z,7.58
2019-01-18T14:11:31.336Z,7.58
2019-01-18T14:13:59.572Z,7.85
2019-01-18T14:16:30.621Z,7.65
2019-01-18T14:18:58.854Z,7.45
2019-01-18T14:21:27.093Z,7.25
2019-01-18T14:23:55.346Z,6.60
2019-01-18T14:26:23.582Z,7.10
2019-01-18T14:28:51.833Z,7.10
2019-01-18T14:31:20.096Z,7.03
2019-01-18T14:33:48.355Z,7.00
2019-01-18T14:36:16.587Z,7.40
2019-01-18T14:38:44.837Z,7.15
2019-01-18T14:41:15.773Z,8.00
2019-01-18T14:43:43.064Z,6.90
2019-01-18T14:46:11.312Z,6.67
2019-01-18T14:48:39.541Z,6.72
2019-01-18T14:51:09.358Z,6.17
2019-01-18T14:53:40.152Z,6.50
2019-01-18T14:56:08.394Z,5.90
2019-01-18T14:58:36.641Z,6.00
2019-01-18T15:01:04.909Z,6.28
2019-01-18T15:03:33.233Z,5.92
2019-01-18T15:06:01.491Z,5.60
2019-01-18T15:08:29.741Z,5.55
2019-01-18T15:10:58.013Z,5.45
2019-01-18T15:13:26.234Z,6.50
2019-01-18T15:15:54.552Z,5.70
2019-01-18T15:18:22.793Z,5.30
2019-01-18T15:20:51.070Z,5.25
2019-01-18T15:23:19.307Z,5.10
2019-01-18T15:25:47.575Z,5.87
2019-01-18T15:28:15.847Z,6.83
2019-01-18T15:30:44.081Z,5.70
2019-01-18T15:33:12.368Z,6.10
2019-01-18T15:35:40.607Z,6.15
2019-01-18T15:38:08.923Z,6.08
2019-01-18T15:40:40.403Z,6.17
2019-01-18T15:43:08.722Z,5.65
2019-01-18T15:45:36.978Z,5.80
2019-01-18T15:48:05.231Z,6.08
2019-01-18T15:50:36.303Z,6.90
2019-01-18T15:53:04.912Z,6.42
2019-01-18T15:55:33.147Z,5.90
2019-01-18T15:58:01.387Z,5.78
2019-01-18T16:00:34.762Z,6.42
2019-01-18T16:03:02.990Z,6.45
2019-01-18T16:05:31.246Z,6.90
2019-01-18T16:07:59.479Z,7.17
2019-01-18T16:10:27.753Z,6.47
2019-01-18T16:12:56.138Z,7.10
2019-01-18T16:15:35.931Z,7.95
2019-01-18T16:18:07.281Z,6.80
2019-01-18T16:20:35.513Z,7.40
2019-01-18T16:23:03.849Z,7.92
2019-01-18T16:25:32.161Z,8.50
2019-01-18T16:28:00.406Z,7.67
2019-01-18T16:30:28.679Z,8.25
2019-01-18T16:32:57.609Z,8.33
2019-01-18T16:35:25.927Z,7.50
2019-01-18T16:37:54.166Z,8.30
2019-01-18T16:40:28.162Z,8.63
2019-01-18T16:42:59.792Z,8.75
2019-01-18T16:45:28.071Z,8.48
2019-01-18T16:47:56.393Z,9.38
2019-01-18T16:50:24.660Z,10.03
2019-01-18T16:52:52.906Z,9.85
2019-01-18T16:55:21.145Z,10.63
2019-01-18T16:57:49.476Z,8.95
2019-01-18T17:00:24.086Z,8.90
2019-01-18T17:02:52.326Z,8.55
2019-01-18T17:05:20.569Z,8.58
2019-01-18T17:07:48.814Z,7.97
2019-01-18T17:10:20.008Z,8.80
2019-01-18T17:12:48.272Z,7.92
2019-01-18T17:15:16.576Z,8.25
2019-01-18T17:17:44.844Z,9.20
2019-01-18T17:20:24.682Z,8.53
2019-01-18T17:22:52.945Z,9.60
2019-01-18T17:25:21.242Z,9.20
2019-01-18T17:27:49.497Z,12.13
2019-01-18T17:30:21.776Z,14.00
2019-01-18T17:32:51.333Z,11.05
2019-01-18T17:35:38.242Z,11.50
2019-01-18T17:40:45.007Z,10.78
2019-01-18T17:43:31.397Z,10.90
2019-01-18T17:46:11.771Z,11.00
2019-01-18T17:48:48.988Z,10.93
2019-01-18T17:51:20.489Z,12.70
2019-01-18T17:53:54.591Z,13.43
2019-01-18T17:56:44.348Z,14.78
2019-01-18T17:59:35.584Z,13.75
2019-01-18T18:02:38.905Z,14.10
2019-01-18T18:05:28.234Z,14.28
2019-01-18T18:08:24.175Z,14.18
2019-01-18T18:11:13.549Z,14.05
2019-01-18T18:13:51.278Z,12.93
2019-01-18T18:16:25.744Z,12.80
2019-01-18T18:19:03.198Z,13.80
2019-01-18T18:21:52.946Z,14.00
2019-01-18T18:24:27.171Z,14.25
2019-01-18T18:27:24.273Z,14.50
2019-01-18T18:32:54.598Z,14.23
2019-01-18T18:35:51.820Z,13.88
2019-01-18T18:38:54.307Z,14.87
2019-01-18T18:41:34.783Z,15.38
2019-01-18T18:44:06.320Z,15.78
2019-01-18T18:46:54.270Z,15.90
2019-01-18T18:49:25.801Z,15.93
2019-01-18T18:52:14.079Z,18.57
2019-01-18T18:54:48.218Z,15.35
2019-01-18T18:57:34.857Z,14.70
2019-01-18T19:00:22.697Z,14.38
2019-01-18T19:03:15.495Z,16.07
2019-01-18T19:06:01.350Z,14.93
2019-01-18T19:08:35.769Z,14.15
2019-01-18T19:11:27.035Z,12.98
2019-01-18T19:14:19.601Z,14.87
2019-01-18T19:16:59.901Z,13.83
2019-01-18T19:20:04.717Z,12.73
2019-01-18T19:22:36.235Z,11.95
2019-01-18T19:25:07.736Z,12.45
2019-01-18T19:28:00.278Z,12.15
2019-01-18T19:30:52.970Z,13.98
2019-01-18T19:33:44.378Z,13.98
2019-01-18T19:36:31.664Z,12.90
2019-01-18T19:39:12.153Z,14.00
2019-01-18T19:42:04.991Z,13.38
2019-01-18T19:44:42.396Z,16.17
2019-01-18T19:47:16.745Z,13.38
2019-01-18T19:49:51.368Z,13.95
2019-01-18T19:52:41.025Z,17.15
2019-01-18T19:55:16.051Z,16.25
2019-01-18T19:58:13.459Z,15.63
2019-01-18T20:00:56.960Z,16.35
2019-01-18T20:03:31.145Z,15.40
2019-01-18T20:06:23.557Z,17.10
2019-01-18T20:09:11.887Z,22.10
2019-01-18T20:11:43.440Z,16.55
2019-01-18T20:14:24.032Z,15.50
2019-01-18T20:16:55.608Z,14.85
2019-01-18T20:19:32.548Z,13.65
2019-01-18T20:22:04.069Z,12.98
2019-01-18T20:25:00.187Z,12.90
2019-01-18T20:27:40.318Z,12.13
2019-01-18T20:30:38.819Z,12.95
2019-01-18T20:33:22.569Z,10.95
2019-01-18T20:36:00.158Z,12.33
2019-01-18T20:38:46.721Z,11.43
2019-01-18T20:44:22.104Z,11.48
2019-01-18T20:46:59.437Z,12.73
2019-01-18T20:49:39.575Z,14.25
2019-01-18T20:52:16.700Z,13.60
2019-01-18T20:54:53.917Z,13.32
2019-01-18T20:57:46.833Z,14.28
2019-01-18T21:00:47.254Z,13.93
2019-01-18T21:03:27.357Z,13.98
2019-01-18T21:06:04.496Z,13.93
2019-01-18T21:08:52.325Z,15.30
2019-01-18T21:11:23.832Z,14.40
2019-01-18T21:13:58.542Z,14.93
2019-01-18T21:16:40.751Z,16.30
2019-01-18T21:19:20.941Z,11.90
2019-01-18T21:22:15.298Z,14.75
2019-01-18T21:24:55.277Z,13.05
2019-01-18T21:27:29.566Z,15.43
2019-01-18T21:30:24.923Z,13.48
2019-01-18T21:32:56.432Z,13.78
2019-01-18T21:35:36.868Z,11.75
2019-01-18T21:38:28.009Z,10.43
2019-01-18T21:41:08.161Z,13.83
2019-01-18T21:43:48.672Z,12.75
2019-01-18T21:46:22.922Z,14.07
2019-01-18T21:49:03.301Z,13.38
2019-01-18T21:51:56.089Z,14.68
2019-01-18T21:54:39.299Z,14.80
2019-01-18T21:57:41.216Z,13.03
2019-01-18T22:00:32.468Z,15.35
2019-01-18T22:03:10.037Z,13.55
2019-01-18T22:05:56.451Z,13.00
2019-01-18T22:08:45.707Z,12.98
2019-01-18T22:11:22.713Z,13.35
2019-01-18T22:13:54.259Z,13.28
2019-01-18T22:16:48.731Z,11.90
2019-01-18T22:19:32.151Z,11.48
2019-01-18T22:22:12.106Z,13.05
2019-01-18T22:25:03.500Z,12.68
2019-01-18T22:27:37.766Z,12.05
2019-01-18T22:30:21.398Z,13.05
2019-01-18T22:32:52.925Z,12.88
2019-01-18T22:35:27.459Z,12.98
2019-01-18T22:37:59.001Z,13.93
2019-01-18T22:40:47.326Z,13.48
2019-01-18T22:43:43.046Z,13.70
2019-01-18T22:46:31.014Z,12.90
2019-01-18T22:49:11.161Z,12.78
2019-01-18T22:51:45.378Z,14.43
2019-01-18T22:54:19.426Z,14.53
2019-01-18T22:56:59.836Z,14.78
2019-01-18T22:59:50.844Z,13.43
2019-01-18T23:02:22.338Z,13.78
2019-01-18T23:05:12.111Z,15.23
2019-01-18T23:07:49.330Z,15.35
2019-01-18T23:10:46.482Z,15.80
2019-01-18T23:13:26.886Z,15.53
2019-01-18T23:16:13.576Z,15.38
2019-01-18T23:18:53.825Z,15.53
2019-01-18T23:21:34.410Z,15.93
2019-01-18T23:24:08.923Z,14.30
2019-01-18T23:26:46.511Z,15.72
2019-01-18T23:29:29.637Z,16.75
2019-01-18T23:32:15.469Z,15.25
2019-01-18T23:34:46.973Z,14.47
2019-01-18T23:37:35.181Z,16.70
2019-01-18T23:40:26.206Z,14.38
2019-01-18T23:43:00.538Z,14.60
2019-01-18T23:45:48.437Z,16.37
2019-01-18T23:48:26.215Z,17.35
2019-01-18T23:51:06.763Z,16.12
2019-01-18T23:53:50.396Z,14.87
2019-01-18T23:56:30.175Z,15.10
2019-01-18T23:59:23.210Z,15.05
